PWSweather.com
Personal Weather Stations
Station Observations
IONTARIO88
Lincoln, ON L0R

Lincoln, ON L0R

Lat: 43.1763563, Lon: -79.4719525

Elevation: 297

Station Type: Davis Vantage Pro 2 Plus

http://www.beamsvillewx.ca

High Low Average
Temperature 36.0°F2.2°C 25.5°F-3.6°C 32.4°F0.2°C
Dew Point 31.3°F-0.4°C 19.9°F-6.7°C 25.2°F-3.8°C
Winds 8.0 mph 12.9 kmh Calm Calm 5.0 mph WSW8.0 kmh WSW
Wind Gusts 17.0 mph27.4 kmh -- 10.0 mph16.1 kmh
Humidity 85% 69% 75%
Pressure 30.38 in1028.8 mb 29.97 in1014.9 mb -
Precipitation 0.00 in0.0 mm - -
Hour Temp Dew Point Humidity Winds Wind Gusts Pressure Precip Precip Rate Daily Precip Total
12:00 AM 36.3°F2.4°C 31.4°F-0.3°C 82% 6.0 mph WSW9.7 kmh WSW 13.0 mph20.9 kmh 29.94 in1013.9 mb 0.00 in0.0 mm 0.00 in0.0 mm 0.25 in6.4 mm
12:15 AM 36.1°F2.3°C 31.2°F-0.4°C 82% 7.0 mph WSW11.3 kmh WSW 17.0 mph27.4 kmh 29.95 in1014.2 mb 0.00 in0.0 mm 0.00 in0.0 mm 0.25 in6.4 mm
12:30 AM 36.1°F2.3°C 31.5°F-0.3°C 83% 6.0 mph WSW9.7 kmh WSW 12.0 mph19.3 kmh 29.95 in1014.2 mb 0.00 in0.0 mm 0.00 in0.0 mm 0.25 in6.4 mm
12:45 AM 36.0°F2.2°C 31.3°F-0.4°C 83% 6.0 mph WSW9.7 kmh WSW 15.0 mph24.1 kmh 29.95 in1014.2 mb 0.00 in0.0 mm 0.00 in0.0 mm 0.25 in6.4 mm
01:00 AM 36.0°F2.2°C 31.3°F-0.4°C 83% 5.0 mph WSW8.0 kmh WSW 11.0 mph17.7 kmh 29.97 in1014.9 mb 0.00 in0.0 mm 0.00 in0.0 mm 0.00 in0.0 mm
01:15 AM 35.8°F2.1°C 31.1°F-0.5°C 83% 5.0 mph W8.0 kmh W 10.0 mph16.1 kmh 29.97 in1014.9 mb 0.00 in0.0 mm 0.00 in0.0 mm 0.00 in0.0 mm
01:30 AM 36.0°F2.2°C 30.7°F-0.7°C 81% 8.0 mph W12.9 kmh W 15.0 mph24.1 kmh 29.97 in1014.9 mb 0.00 in0.0 mm 0.00 in0.0 mm 0.00 in0.0 mm
01:45 AM 35.8°F2.1°C 29.9°F-1.2°C 79% 6.0 mph W9.7 kmh W 14.0 mph22.5 kmh 29.98 in1015.2 mb 0.00 in0.0 mm 0.00 in0.0 mm 0.00 in0.0 mm
02:00 AM 36.0°F2.2°C 29.1°F-1.6°C 76% 6.0 mph WNW9.7 kmh WNW 15.0 mph24.1 kmh 29.99 in1015.6 mb 0.00 in0.0 mm 0.00 in0.0 mm 0.00 in0.0 mm
02:15 AM 35.8°F2.1°C 28.3°F-2.1°C 74% 5.0 mph W8.0 kmh W 11.0 mph17.7 kmh 30.00 in1015.9 mb 0.00 in0.0 mm 0.00 in0.0 mm 0.00 in0.0 mm
02:30 AM 35.8°F2.1°C 28.3°F-2.1°C 74% 7.0 mph W11.3 kmh W 13.0 mph20.9 kmh 30.00 in1015.9 mb 0.00 in0.0 mm 0.00 in0.0 mm 0.00 in0.0 mm
02:45 AM 35.8°F2.1°C 28.0°F-2.2°C 73% 5.0 mph W8.0 kmh W 11.0 mph17.7 kmh 30.00 in1015.9 mb 0.00 in0.0 mm 0.00 in0.0 mm 0.00 in0.0 mm
03:00 AM 35.8°F2.1°C 27.6°F-2.4°C 72% 6.0 mph WSW9.7 kmh WSW 12.0 mph19.3 kmh 30.00 in1015.9 mb 0.00 in0.0 mm 0.00 in0.0 mm 0.00 in0.0 mm
03:15 AM 35.8°F2.1°C 27.3°F-2.6°C 71% 5.0 mph WSW8.0 kmh WSW 12.0 mph19.3 kmh 30.01 in1016.3 mb 0.00 in0.0 mm 0.00 in0.0 mm 0.00 in0.0 mm
03:30 AM 35.8°F2.1°C 27.3°F-2.6°C 71% 5.0 mph WSW8.0 kmh WSW 12.0 mph19.3 kmh 30.02 in1016.6 mb 0.00 in0.0 mm 0.00 in0.0 mm 0.00 in0.0 mm
03:45 AM 35.8°F2.1°C 26.6°F-3.0°C 69% 6.0 mph WSW9.7 kmh WSW 13.0 mph20.9 kmh 30.03 in1016.9 mb 0.00 in0.0 mm 0.00 in0.0 mm 0.00 in0.0 mm
04:00 AM 35.8°F2.1°C 26.6°F-3.0°C 69% 6.0 mph WSW9.7 kmh WSW 11.0 mph17.7 kmh 30.03 in1016.9 mb 0.00 in0.0 mm 0.00 in0.0 mm 0.00 in0.0 mm
04:15 AM 35.8°F2.1°C 26.9°F-2.8°C 70% 7.0 mph WSW11.3 kmh WSW 14.0 mph22.5 kmh 30.04 in1017.3 mb 0.00 in0.0 mm 0.00 in0.0 mm 0.00 in0.0 mm
04:30 AM 35.8°F2.1°C 27.3°F-2.6°C 71% 6.0 mph WSW9.7 kmh WSW 13.0 mph20.9 kmh 30.04 in1017.3 mb 0.00 in0.0 mm 0.00 in0.0 mm 0.00 in0.0 mm
04:45 AM 35.6°F2.0°C 27.5°F-2.5°C 72% 6.0 mph WSW9.7 kmh WSW 13.0 mph20.9 kmh 30.05 in1017.6 mb 0.00 in0.0 mm 0.00 in0.0 mm 0.00 in0.0 mm
05:00 AM 35.1°F1.7°C 27.3°F-2.6°C 73% 6.0 mph WSW9.7 kmh WSW 13.0 mph20.9 kmh 30.05 in1017.6 mb 0.00 in0.0 mm 0.00 in0.0 mm 0.00 in0.0 mm
05:15 AM 34.7°F1.5°C 27.6°F-2.4°C 75% 6.0 mph WSW9.7 kmh WSW 14.0 mph22.5 kmh 30.06 in1017.9 mb 0.00 in0.0 mm 0.00 in0.0 mm 0.00 in0.0 mm
05:30 AM 34.3°F1.3°C 28.2°F-2.1°C 78% 6.0 mph WSW9.7 kmh WSW 14.0 mph22.5 kmh 30.06 in1017.9 mb 0.00 in0.0 mm 0.00 in0.0 mm 0.00 in0.0 mm
05:45 AM 33.4°F0.8°C 28.2°F-2.1°C 81% 6.0 mph WSW9.7 kmh WSW 12.0 mph19.3 kmh 30.06 in1017.9 mb 0.00 in0.0 mm 0.00 in0.0 mm 0.00 in0.0 mm
06:00 AM 32.9°F0.5°C 28.3°F-2.1°C 83% 7.0 mph WSW11.3 kmh WSW 12.0 mph19.3 kmh 30.07 in1018.3 mb 0.00 in0.0 mm 0.00 in0.0 mm 0.00 in0.0 mm
06:15 AM 32.5°F0.3°C 28.0°F-2.2°C 83% 5.0 mph WSW8.0 kmh WSW 12.0 mph19.3 kmh 30.08 in1018.6 mb 0.00 in0.0 mm 0.00 in0.0 mm 0.00 in0.0 mm
06:30 AM 32.4°F0.2°C 28.1°F-2.2°C 84% 7.0 mph WSW11.3 kmh WSW 14.0 mph22.5 kmh 30.08 in1018.6 mb 0.00 in0.0 mm 0.00 in0.0 mm 0.00 in0.0 mm
06:45 AM 32.0°F0.0°C 27.7°F-2.4°C 84% 5.0 mph WSW8.0 kmh WSW 12.0 mph19.3 kmh 30.09 in1019.0 mb 0.00 in0.0 mm 0.00 in0.0 mm 0.00 in0.0 mm
07:00 AM 31.8°F-0.1°C 27.5°F-2.5°C 84% 6.0 mph WSW9.7 kmh WSW 13.0 mph20.9 kmh 30.09 in1019.0 mb 0.00 in0.0 mm 0.00 in0.0 mm 0.00 in0.0 mm
07:15 AM 32.0°F0.0°C 27.7°F-2.4°C 84% 7.0 mph WSW11.3 kmh WSW 14.0 mph22.5 kmh 30.10 in1019.3 mb 0.00 in0.0 mm 0.00 in0.0 mm 0.00 in0.0 mm
07:30 AM 31.8°F-0.1°C 27.2°F-2.7°C 83% 8.0 mph WSW12.9 kmh WSW 14.0 mph22.5 kmh 30.11 in1019.6 mb 0.00 in0.0 mm 0.00 in0.0 mm 0.00 in0.0 mm
07:45 AM 31.8°F-0.1°C 27.5°F-2.5°C 84% 7.0 mph WSW11.3 kmh WSW 12.0 mph19.3 kmh 30.12 in1020.0 mb 0.00 in0.0 mm 0.00 in0.0 mm 0.00 in0.0 mm
08:00 AM 31.5°F-0.3°C 27.2°F-2.7°C 84% 5.0 mph W8.0 kmh W 14.0 mph22.5 kmh 30.13 in1020.3 mb 0.00 in0.0 mm 0.00 in0.0 mm 0.00 in0.0 mm
08:15 AM 31.3°F-0.4°C 27.0°F-2.8°C 84% 5.0 mph WSW8.0 kmh WSW 11.0 mph17.7 kmh 30.14 in1020.7 mb 0.00 in0.0 mm 0.00 in0.0 mm 0.00 in0.0 mm
08:30 AM 30.7°F-0.7°C 26.8°F-2.9°C 85% 7.0 mph WSW11.3 kmh WSW 13.0 mph20.9 kmh 30.14 in1020.7 mb 0.00 in0.0 mm 0.00 in0.0 mm 0.00 in0.0 mm
08:45 AM 30.6°F-0.8°C 26.6°F-3.0°C 85% 5.0 mph WSW8.0 kmh WSW 14.0 mph22.5 kmh 30.15 in1021.0 mb 0.00 in0.0 mm 0.00 in0.0 mm 0.00 in0.0 mm
09:00 AM 30.4°F-0.9°C 26.4°F-3.1°C 85% 6.0 mph WSW9.7 kmh WSW 14.0 mph22.5 kmh 30.16 in1021.3 mb 0.00 in0.0 mm 0.00 in0.0 mm 0.00 in0.0 mm
09:15 AM 30.4°F-0.9°C 26.4°F-3.1°C 85% 6.0 mph WSW9.7 kmh WSW 11.0 mph17.7 kmh 30.17 in1021.7 mb 0.00 in0.0 mm 0.00 in0.0 mm 0.00 in0.0 mm
09:30 AM 30.6°F-0.8°C 26.3°F-3.2°C 84% 7.0 mph W11.3 kmh W 12.0 mph19.3 kmh 30.18 in1022.0 mb 0.00 in0.0 mm 0.00 in0.0 mm 0.00 in0.0 mm
09:45 AM 30.6°F-0.8°C 26.3°F-3.2°C 84% 4.0 mph WSW6.4 kmh WSW 11.0 mph17.7 kmh 30.19 in1022.4 mb 0.00 in0.0 mm 0.00 in0.0 mm 0.00 in0.0 mm
10:00 AM 30.7°F-0.7°C 26.5°F-3.1°C 84% 5.0 mph W8.0 kmh W 10.0 mph16.1 kmh 30.19 in1022.4 mb 0.00 in0.0 mm 0.00 in0.0 mm 0.00 in0.0 mm
10:15 AM 31.3°F-0.4°C 25.8°F-3.4°C 80% 7.0 mph W11.3 kmh W 13.0 mph20.9 kmh 30.20 in1022.7 mb 0.00 in0.0 mm 0.00 in0.0 mm 0.00 in0.0 mm
10:30 AM 31.5°F-0.3°C 26.0°F-3.3°C 80% 5.0 mph WSW8.0 kmh WSW 10.0 mph16.1 kmh 30.21 in1023.0 mb 0.00 in0.0 mm 0.00 in0.0 mm 0.00 in0.0 mm
10:45 AM 31.8°F-0.1°C 26.0°F-3.3°C 79% 4.0 mph W6.4 kmh W 9.0 mph14.5 kmh 30.22 in1023.4 mb 0.00 in0.0 mm 0.00 in0.0 mm 0.00 in0.0 mm
11:00 AM 32.0°F0.0°C 26.2°F-3.2°C 79% 4.0 mph WSW6.4 kmh WSW 9.0 mph14.5 kmh 30.23 in1023.7 mb 0.00 in0.0 mm 0.00 in0.0 mm 0.00 in0.0 mm
11:15 AM 33.1°F0.6°C 26.7°F-2.9°C 77% 5.0 mph WSW8.0 kmh WSW 13.0 mph20.9 kmh 30.23 in1023.7 mb 0.00 in0.0 mm 0.00 in0.0 mm 0.00 in0.0 mm
11:30 AM 33.3°F0.7°C 25.5°F-3.6°C 73% 7.0 mph W11.3 kmh W 16.0 mph25.7 kmh 30.24 in1024.0 mb 0.00 in0.0 mm 0.00 in0.0 mm 0.00 in0.0 mm
11:45 AM 32.9°F0.5°C 25.5°F-3.6°C 74% 7.0 mph W11.3 kmh W 12.0 mph19.3 kmh 30.25 in1024.4 mb 0.00 in0.0 mm 0.00 in0.0 mm 0.00 in0.0 mm
12:00 PM 32.7°F0.4°C 25.0°F-3.9°C 73% 7.0 mph W11.3 kmh W 14.0 mph22.5 kmh 30.25 in1024.4 mb 0.00 in0.0 mm 0.00 in0.0 mm 0.00 in0.0 mm
12:15 PM 32.9°F0.5°C 24.9°F-3.9°C 72% 5.0 mph WSW8.0 kmh WSW 10.0 mph16.1 kmh 30.24 in1024.0 mb 0.00 in0.0 mm 0.00 in0.0 mm 0.00 in0.0 mm
12:30 PM 33.1°F0.6°C 25.0°F-3.9°C 72% 6.0 mph WSW9.7 kmh WSW 13.0 mph20.9 kmh 30.25 in1024.4 mb 0.00 in0.0 mm 0.00 in0.0 mm 0.00 in0.0 mm
12:45 PM 32.9°F0.5°C 24.9°F-3.9°C 72% 6.0 mph WSW9.7 kmh WSW 12.0 mph19.3 kmh 30.25 in1024.4 mb 0.00 in0.0 mm 0.00 in0.0 mm 0.00 in0.0 mm
01:00 PM 33.3°F0.7°C 25.2°F-3.8°C 72% 6.0 mph W9.7 kmh W 13.0 mph20.9 kmh 30.25 in1024.4 mb 0.00 in0.0 mm 0.00 in0.0 mm 0.00 in0.0 mm
01:15 PM 33.3°F0.7°C 24.2°F-4.3°C 69% 6.0 mph W9.7 kmh W 11.0 mph17.7 kmh 30.25 in1024.4 mb 0.00 in0.0 mm 0.00 in0.0 mm 0.00 in0.0 mm
01:30 PM 33.3°F0.7°C 24.2°F-4.3°C 69% 7.0 mph WSW11.3 kmh WSW 13.0 mph20.9 kmh 30.25 in1024.4 mb 0.00 in0.0 mm 0.00 in0.0 mm 0.00 in0.0 mm
01:45 PM 33.3°F0.7°C 24.5°F-4.2°C 70% 6.0 mph W9.7 kmh W 12.0 mph19.3 kmh 30.25 in1024.4 mb 0.00 in0.0 mm 0.00 in0.0 mm 0.00 in0.0 mm
02:00 PM 33.4°F0.8°C 24.7°F-4.1°C 70% 6.0 mph W9.7 kmh W 11.0 mph17.7 kmh 30.25 in1024.4 mb 0.00 in0.0 mm 0.00 in0.0 mm 0.00 in0.0 mm
02:15 PM 33.3°F0.7°C 24.2°F-4.3°C 69% 6.0 mph W9.7 kmh W 14.0 mph22.5 kmh 30.25 in1024.4 mb 0.00 in0.0 mm 0.00 in0.0 mm 0.00 in0.0 mm
02:30 PM 33.3°F0.7°C 24.2°F-4.3°C 69% 7.0 mph W11.3 kmh W 13.0 mph20.9 kmh 30.26 in1024.7 mb 0.00 in0.0 mm 0.00 in0.0 mm 0.00 in0.0 mm
02:45 PM 33.1°F0.6°C 24.0°F-4.4°C 69% 7.0 mph W11.3 kmh W 17.0 mph27.4 kmh 30.26 in1024.7 mb 0.00 in0.0 mm 0.00 in0.0 mm 0.00 in0.0 mm
03:00 PM 33.1°F0.6°C 24.0°F-4.4°C 69% 7.0 mph W11.3 kmh W 14.0 mph22.5 kmh 30.27 in1025.1 mb 0.00 in0.0 mm 0.00 in0.0 mm 0.00 in0.0 mm
03:15 PM 32.9°F0.5°C 23.8°F-4.6°C 69% 7.0 mph WSW11.3 kmh WSW 15.0 mph24.1 kmh 30.27 in1025.1 mb 0.00 in0.0 mm 0.00 in0.0 mm 0.00 in0.0 mm
03:30 PM 33.1°F0.6°C 24.4°F-4.2°C 70% 6.0 mph W9.7 kmh W 11.0 mph17.7 kmh 30.27 in1025.1 mb 0.00 in0.0 mm 0.00 in0.0 mm 0.00 in0.0 mm
03:45 PM 32.9°F0.5°C 23.8°F-4.6°C 69% 6.0 mph WSW9.7 kmh WSW 15.0 mph24.1 kmh 30.28 in1025.4 mb 0.00 in0.0 mm 0.00 in0.0 mm 0.00 in0.0 mm
04:00 PM 32.7°F0.4°C 24.0°F-4.4°C 70% 5.0 mph WSW8.0 kmh WSW 10.0 mph16.1 kmh 30.28 in1025.4 mb 0.00 in0.0 mm 0.00 in0.0 mm 0.00 in0.0 mm
04:15 PM 32.7°F0.4°C 23.7°F-4.6°C 69% 6.0 mph WSW9.7 kmh WSW 14.0 mph22.5 kmh 30.29 in1025.7 mb 0.00 in0.0 mm 0.00 in0.0 mm 0.00 in0.0 mm
04:30 PM 32.5°F0.3°C 23.5°F-4.7°C 69% 5.0 mph W8.0 kmh W 12.0 mph19.3 kmh 30.30 in1026.1 mb 0.00 in0.0 mm 0.00 in0.0 mm 0.00 in0.0 mm
04:45 PM 32.4°F0.2°C 23.7°F-4.6°C 70% 5.0 mph WSW8.0 kmh WSW 12.0 mph19.3 kmh 30.30 in1026.1 mb 0.00 in0.0 mm 0.00 in0.0 mm 0.00 in0.0 mm
05:00 PM 32.4°F0.2°C 24.0°F-4.4°C 71% 6.0 mph WSW9.7 kmh WSW 11.0 mph17.7 kmh 30.31 in1026.4 mb 0.00 in0.0 mm 0.00 in0.0 mm 0.00 in0.0 mm
05:15 PM 32.2°F0.1°C 23.5°F-4.7°C 70% 4.0 mph WSW6.4 kmh WSW 9.0 mph14.5 kmh 30.31 in1026.4 mb 0.00 in0.0 mm 0.00 in0.0 mm 0.00 in0.0 mm
05:30 PM 32.2°F0.1°C 23.8°F-4.6°C 71% 3.0 mph W4.8 kmh W 10.0 mph16.1 kmh 30.31 in1026.4 mb 0.00 in0.0 mm 0.00 in0.0 mm 0.00 in0.0 mm
05:45 PM 32.0°F0.0°C 23.7°F-4.6°C 71% 4.0 mph WSW6.4 kmh WSW 11.0 mph17.7 kmh 30.32 in1026.8 mb 0.00 in0.0 mm 0.00 in0.0 mm 0.00 in0.0 mm
06:00 PM 31.8°F-0.1°C 23.5°F-4.7°C 71% 4.0 mph WSW6.4 kmh WSW 9.0 mph14.5 kmh 30.33 in1027.1 mb 0.00 in0.0 mm 0.00 in0.0 mm 0.00 in0.0 mm
06:15 PM 31.8°F-0.1°C 23.5°F-4.7°C 71% 3.0 mph WSW4.8 kmh WSW 7.0 mph11.3 kmh 30.33 in1027.1 mb 0.00 in0.0 mm 0.00 in0.0 mm 0.00 in0.0 mm
06:30 PM 31.6°F-0.2°C 23.6°F-4.7°C 72% 2.0 mph WSW3.2 kmh WSW 6.0 mph9.7 kmh 30.34 in1027.4 mb 0.00 in0.0 mm 0.00 in0.0 mm 0.00 in0.0 mm
07:00 PM 31.6°F-0.2°C 23.6°F-4.7°C 72% 2.0 mph WSW3.2 kmh WSW 6.0 mph9.7 kmh 30.34 in1027.4 mb 0.00 in0.0 mm 0.00 in0.0 mm 0.00 in0.0 mm
07:15 PM 31.6°F-0.2°C 23.6°F-4.7°C 72% 2.0 mph WSW3.2 kmh WSW 6.0 mph9.7 kmh 30.34 in1027.4 mb 0.00 in0.0 mm 0.00 in0.0 mm 0.00 in0.0 mm
07:30 PM 31.6°F-0.2°C 23.3°F-4.8°C 71% 2.0 mph WSW3.2 kmh WSW 7.0 mph11.3 kmh 30.34 in1027.4 mb 0.00 in0.0 mm 0.00 in0.0 mm 0.00 in0.0 mm
07:45 PM 31.5°F-0.3°C 23.1°F-4.9°C 71% 2.0 mph WSW3.2 kmh WSW 6.0 mph9.7 kmh 30.36 in1028.1 mb 0.00 in0.0 mm 0.00 in0.0 mm 0.00 in0.0 mm
08:00 PM 31.5°F-0.3°C 23.1°F-4.9°C 71% 2.0 mph WSW3.2 kmh WSW 7.0 mph11.3 kmh 30.36 in1028.1 mb 0.00 in0.0 mm 0.00 in0.0 mm 0.00 in0.0 mm
08:15 PM 31.5°F-0.3°C 23.1°F-4.9°C 71% 2.0 mph WSW3.2 kmh WSW 7.0 mph11.3 kmh 30.36 in1028.1 mb 0.00 in0.0 mm 0.00 in0.0 mm 0.00 in0.0 mm
08:30 PM 31.5°F-0.3°C 23.5°F-4.7°C 72% 1.0 mph WSW1.6 kmh WSW 5.0 mph8.0 kmh 30.37 in1028.4 mb 0.00 in0.0 mm 0.00 in0.0 mm 0.00 in0.0 mm
08:45 PM 31.3°F-0.4°C 23.0°F-5.0°C 71% 3.0 mph WSW4.8 kmh WSW 7.0 mph11.3 kmh 30.37 in1028.4 mb 0.00 in0.0 mm 0.00 in0.0 mm 0.00 in0.0 mm
09:00 PM 31.3°F-0.4°C 23.3°F-4.8°C 72% 2.0 mph SW3.2 kmh SW 6.0 mph9.7 kmh 30.37 in1028.4 mb 0.00 in0.0 mm 0.00 in0.0 mm 0.00 in0.0 mm
09:15 PM 31.1°F-0.5°C 22.8°F-5.1°C 71% 2.0 mph SW3.2 kmh SW 6.0 mph9.7 kmh 30.36 in1028.1 mb 0.00 in0.0 mm 0.00 in0.0 mm 0.00 in0.0 mm
09:30 PM 30.9°F-0.6°C 23.0°F-5.0°C 72% 2.0 mph SW3.2 kmh SW 5.0 mph8.0 kmh 30.36 in1028.1 mb 0.00 in0.0 mm 0.00 in0.0 mm 0.00 in0.0 mm
09:45 PM 30.9°F-0.6°C 23.0°F-5.0°C 72% 2.0 mph SW3.2 kmh SW 5.0 mph8.0 kmh 30.36 in1028.1 mb 0.00 in0.0 mm 0.00 in0.0 mm 0.00 in0.0 mm
10:00 PM 30.9°F-0.6°C 23.0°F-5.0°C 72% 1.0 mph SW1.6 kmh SW 4.0 mph6.4 kmh 30.36 in1028.1 mb 0.00 in0.0 mm 0.00 in0.0 mm 0.00 in0.0 mm
10:15 PM 31.1°F-0.5°C 23.1°F-4.9°C 72% 1.0 mph SW1.6 kmh SW 4.0 mph6.4 kmh 30.36 in1028.1 mb 0.00 in0.0 mm 0.00 in0.0 mm 0.00 in0.0 mm
10:30 PM 31.1°F-0.5°C 23.1°F-4.9°C 72% Calm Calm 3.0 mph4.8 kmh 30.36 in1028.1 mb 0.00 in0.0 mm 0.00 in0.0 mm 0.00 in0.0 mm
10:45 PM 30.7°F-0.7°C 22.8°F-5.1°C 72% 1.0 mph SW1.6 kmh SW 3.0 mph4.8 kmh 30.36 in1028.1 mb 0.00 in0.0 mm 0.00 in0.0 mm 0.00 in0.0 mm
11:00 PM 30.2°F-1.0°C 22.3°F-5.4°C 72% Calm Calm -- 30.36 in1028.1 mb 0.00 in0.0 mm 0.00 in0.0 mm 0.00 in0.0 mm
11:15 PM 29.5°F-1.4°C 21.9°F-5.6°C 73% Calm Calm 1.0 mph1.6 kmh 30.37 in1028.4 mb 0.00 in0.0 mm 0.00 in0.0 mm 0.00 in0.0 mm
11:30 PM 28.6°F-1.9°C 21.7°F-5.7°C 75% Calm Calm -- 30.36 in1028.1 mb 0.00 in0.0 mm 0.00 in0.0 mm 0.00 in0.0 mm
11:45 PM 27.7°F-2.4°C 21.1°F-6.1°C 76% Calm Calm -- 30.37 in1028.4 mb 0.00 in0.0 mm 0.00 in0.0 mm 0.00 in0.0 mm